sensor_id;sensor_type;location;lat;lon;timestamp;pressure;altitude;pressure_sealevel;temperature;humidity
53940;BME280;39850;43.324;21.916;2023-08-30T00:18:20;981.0;;;19.9;78.0
53940;BME280;39850;43.324;21.916;2023-08-30T00:22:57;981.0;;;19.9;78.0
53940;BME280;39850;43.324;21.916;2023-08-30T00:27:34;981.0;;;20.0;79.0
53940;BME280;39850;43.324;21.916;2023-08-30T00:32:10;981.0;;;20.0;79.0
53940;BME280;39850;43.324;21.916;2023-08-30T00:36:48;981.0;;;19.9;79.0
53940;BME280;39850;43.324;21.916;2023-08-30T00:41:24;981.0;;;19.9;79.0
53940;BME280;39850;43.324;21.916;2023-08-30T00:46:02;981.0;;;20.0;79.0
53940;BME280;39850;43.324;21.916;2023-08-30T00:50:42;981.0;;;20.0;79.0
53940;BME280;39850;43.324;21.916;2023-08-30T00:55:19;981.0;;;19.9;79.0
53940;BME280;39850;43.324;21.916;2023-08-30T00:59:58;981.0;;;19.9;79.0
53940;BME280;39850;43.324;21.916;2023-08-30T01:04:36;981.0;;;19.9;79.0
53940;BME280;39850;43.324;21.916;2023-08-30T01:37:59;981.0;;;20.0;80.0
53940;BME280;39850;43.324;21.916;2023-08-30T01:42:44;981.0;;;20.0;80.0
53940;BME280;39850;43.324;21.916;2023-08-30T01:47:31;981.0;;;19.9;79.0
53940;BME280;39850;43.324;21.916;2023-08-30T01:52:14;981.0;;;19.9;79.0
53940;BME280;39850;43.324;21.916;2023-08-30T01:56:52;981.0;;;20.0;78.0
53940;BME280;39850;43.324;21.916;2023-08-30T02:01:29;981.0;;;20.0;78.0
53940;BME280;39850;43.324;21.916;2023-08-30T02:06:33;981.0;;;20.0;78.0
53940;BME280;39850;43.324;21.916;2023-08-30T02:11:34;981.0;;;20.0;78.0
53940;BME280;39850;43.324;21.916;2023-08-30T02:16:19;981.0;;;20.1;78.0
53940;BME280;39850;43.324;21.916;2023-08-30T02:20:58;981.0;;;20.1;78.0
53940;BME280;39850;43.324;21.916;2023-08-30T02:58:02;981.0;;;20.0;78.0
53940;BME280;39850;43.324;21.916;2023-08-30T03:02:39;981.0;;;20.0;78.0
53940;BME280;39850;43.324;21.916;2023-08-30T03:07:15;981.0;;;20.0;78.0
53940;BME280;39850;43.324;21.916;2023-08-30T03:11:52;981.0;;;20.0;78.0
53940;BME280;39850;43.324;21.916;2023-08-30T03:16:29;981.0;;;20.0;78.0
53940;BME280;39850;43.324;21.916;2023-08-30T03:21:07;981.0;;;20.0;78.0
53940;BME280;39850;43.324;21.916;2023-08-30T03:25:44;981.0;;;19.4;79.0
53940;BME280;39850;43.324;21.916;2023-08-30T03:30:21;981.0;;;19.4;79.0
53940;BME280;39850;43.324;21.916;2023-08-30T03:34:57;981.0;;;19.4;79.0
53940;BME280;39850;43.324;21.916;2023-08-30T03:39:35;981.0;;;18.9;79.0
53940;BME280;39850;43.324;21.916;2023-08-30T03:44:12;981.0;;;18.9;79.0
53940;BME280;39850;43.324;21.916;2023-08-30T04:16:30;981.0;;;18.9;79.0
53940;BME280;39850;43.324;21.916;2023-08-30T04:21:07;981.0;;;18.9;79.0
53940;BME280;39850;43.324;21.916;2023-08-30T04:25:45;981.0;;;18.9;79.0
53940;BME280;39850;43.324;21.916;2023-08-30T04:30:23;981.0;;;19.0;80.0
53940;BME280;39850;43.324;21.916;2023-08-30T04:35:00;981.0;;;19.0;80.0
53940;BME280;39850;43.324;21.916;2023-08-30T04:39:37;981.0;;;19.0;80.0
53940;BME280;39850;43.324;21.916;2023-08-30T04:44:13;981.0;;;19.0;80.0
53940;BME280;39850;43.324;21.916;2023-08-30T04:48:49;981.0;;;19.1;80.0
53940;BME280;39850;43.324;21.916;2023-08-30T04:53:26;981.0;;;19.1;80.0
53940;BME280;39850;43.324;21.916;2023-08-30T04:58:03;981.0;;;19.2;80.0
53940;BME280;39850;43.324;21.916;2023-08-30T05:02:40;981.0;;;19.2;80.0
53940;BME280;39850;43.324;21.916;2023-08-30T05:39:33;981.0;;;21.3;71.0
53940;BME280;39850;43.324;21.916;2023-08-30T05:44:10;981.0;;;21.3;71.0
53940;BME280;39850;43.324;21.916;2023-08-30T05:48:47;982.0;;;22.6;67.0
53940;BME280;39850;43.324;21.916;2023-08-30T05:53:24;982.0;;;22.6;67.0
53940;BME280;39850;43.324;21.916;2023-08-30T05:58:01;982.0;;;23.9;64.0
53940;BME280;39850;43.324;21.916;2023-08-30T06:02:38;982.0;;;23.9;64.0
53940;BME280;39850;43.324;21.916;2023-08-30T06:07:15;982.0;;;24.5;61.0
53940;BME280;39850;43.324;21.916;2023-08-30T06:11:51;982.0;;;24.5;61.0
53940;BME280;39850;43.324;21.916;2023-08-30T06:16:28;982.0;;;25.1;58.0
53940;BME280;39850;43.324;21.916;2023-08-30T06:21:04;982.0;;;25.1;58.0
53940;BME280;39850;43.324;21.916;2023-08-30T06:25:42;982.0;;;25.1;58.0
53940;BME280;39850;43.324;21.916;2023-08-30T06:58:06;982.0;;;25.5;57.0
53940;BME280;39850;43.324;21.916;2023-08-30T07:02:42;982.0;;;25.5;57.0
53940;BME280;39850;43.324;21.916;2023-08-30T07:07:19;982.0;;;25.4;57.0
53940;BME280;39850;43.324;21.916;2023-08-30T07:11:56;982.0;;;25.4;57.0
53940;BME280;39850;43.324;21.916;2023-08-30T07:16:32;982.0;;;25.5;57.0
53940;BME280;39850;43.324;21.916;2023-08-30T07:21:09;982.0;;;25.5;57.0
53940;BME280;39850;43.324;21.916;2023-08-30T07:25:46;982.0;;;25.5;57.0
53940;BME280;39850;43.324;21.916;2023-08-30T07:30:23;982.0;;;26.0;56.0
53940;BME280;39850;43.324;21.916;2023-08-30T07:35:00;982.0;;;26.0;56.0
53940;BME280;39850;43.324;21.916;2023-08-30T07:39:36;982.0;;;26.6;55.0
53940;BME280;39850;43.324;21.916;2023-08-30T07:44:13;982.0;;;26.6;55.0
53940;BME280;39850;43.324;21.916;2023-08-30T08:21:08;982.0;;;29.0;42.0
53940;BME280;39850;43.324;21.916;2023-08-30T08:25:44;982.0;;;29.0;42.0
53940;BME280;39850;43.324;21.916;2023-08-30T08:30:21;982.0;;;29.4;42.0
53940;BME280;39850;43.324;21.916;2023-08-30T08:34:58;982.0;;;29.4;42.0
53940;BME280;39850;43.324;21.916;2023-08-30T08:39:35;982.0;;;29.8;42.0
53940;BME280;39850;43.324;21.916;2023-08-30T08:44:13;982.0;;;29.8;42.0
53940;BME280;39850;43.324;21.916;2023-08-30T08:48:58;982.0;;;29.9;42.0
53940;BME280;39850;43.324;21.916;2023-08-30T08:53:44;982.0;;;29.9;42.0
53940;BME280;39850;43.324;21.916;2023-08-30T08:58:21;982.0;;;30.0;42.0
53940;BME280;39850;43.324;21.916;2023-08-30T09:03:00;982.0;;;30.0;42.0
53940;BME280;39850;43.324;21.916;2023-08-30T09:40:08;981.0;;;27.3;42.0
53940;BME280;39850;43.324;21.916;2023-08-30T09:44:46;981.0;;;27.3;42.0
53940;BME280;39850;43.324;21.916;2023-08-30T09:49:27;981.0;;;26.8;41.0
53940;BME280;39850;43.324;21.916;2023-08-30T09:54:17;981.0;;;26.8;41.0
53940;BME280;39850;43.324;21.916;2023-08-30T09:59:02;981.0;;;26.2;41.0
53940;BME280;39850;43.324;21.916;2023-08-30T10:03:42;981.0;;;26.2;41.0
53940;BME280;39850;43.324;21.916;2023-08-30T10:08:28;981.0;;;26.2;40.0
53940;BME280;39850;43.324;21.916;2023-08-30T10:13:07;981.0;;;26.2;40.0
53940;BME280;39850;43.324;21.916;2023-08-30T10:17:58;981.0;;;26.2;40.0
53940;BME280;39850;43.324;21.916;2023-08-30T10:22:44;981.0;;;26.2;40.0
53940;BME280;39850;43.324;21.916;2023-08-30T11:00:18;981.0;;;25.3;42.0
53940;BME280;39850;43.324;21.916;2023-08-30T11:04:58;981.0;;;25.3;42.0
53940;BME280;39850;43.324;21.916;2023-08-30T11:09:40;981.0;;;25.5;42.0
53940;BME280;39850;43.324;21.916;2023-08-30T11:14:19;981.0;;;25.5;42.0
53940;BME280;39850;43.324;21.916;2023-08-30T11:18:56;981.0;;;25.6;42.0
53940;BME280;39850;43.324;21.916;2023-08-30T11:23:34;981.0;;;25.6;42.0
53940;BME280;39850;43.324;21.916;2023-08-30T11:28:10;981.0;;;26.0;42.0
53940;BME280;39850;43.324;21.916;2023-08-30T11:32:47;981.0;;;26.0;42.0
53940;BME280;39850;43.324;21.916;2023-08-30T11:37:28;981.0;;;26.4;42.0
53940;BME280;39850;43.324;21.916;2023-08-30T11:42:07;981.0;;;26.4;42.0
53940;BME280;39850;43.324;21.916;2023-08-30T11:46:44;981.0;;;26.4;42.0
53940;BME280;39850;43.324;21.916;2023-08-30T12:19:16;981.0;;;26.3;40.0
53940;BME280;39850;43.324;21.916;2023-08-30T12:24:01;981.0;;;26.3;40.0
53940;BME280;39850;43.324;21.916;2023-08-30T12:28:42;981.0;;;26.2;39.0
53940;BME280;39850;43.324;21.916;2023-08-30T12:33:20;981.0;;;26.2;39.0
53940;BME280;39850;43.324;21.916;2023-08-30T12:37:57;981.0;;;26.3;39.0
53940;BME280;39850;43.324;21.916;2023-08-30T12:42:34;981.0;;;26.3;39.0
53940;BME280;39850;43.324;21.916;2023-08-30T12:47:11;981.0;;;26.3;39.0
53940;BME280;39850;43.324;21.916;2023-08-30T12:51:47;981.0;;;26.3;38.0
53940;BME280;39850;43.324;21.916;2023-08-30T12:56:24;981.0;;;26.3;38.0
53940;BME280;39850;43.324;21.916;2023-08-30T13:01:00;981.0;;;26.4;39.0
53940;BME280;39850;43.324;21.916;2023-08-30T13:05:37;981.0;;;26.4;39.0
53940;BME280;39850;43.324;21.916;2023-08-30T13:37:55;981.0;;;25.5;38.0
53940;BME280;39850;43.324;21.916;2023-08-30T13:42:32;981.0;;;25.5;38.0
53940;BME280;39850;43.324;21.916;2023-08-30T13:47:08;981.0;;;25.5;38.0
53940;BME280;39850;43.324;21.916;2023-08-30T13:51:45;981.0;;;25.4;38.0
53940;BME280;39850;43.324;21.916;2023-08-30T13:56:24;981.0;;;25.4;38.0
53940;BME280;39850;43.324;21.916;2023-08-30T14:01:01;981.0;;;25.4;38.0
53940;BME280;39850;43.324;21.916;2023-08-30T14:05:38;981.0;;;25.4;38.0
53940;BME280;39850;43.324;21.916;2023-08-30T14:10:15;981.0;;;25.4;38.0
53940;BME280;39850;43.324;21.916;2023-08-30T14:14:51;981.0;;;25.4;38.0
53940;BME280;39850;43.324;21.916;2023-08-30T14:19:28;981.0;;;25.3;38.0
53940;BME280;39850;43.324;21.916;2023-08-30T14:24:07;981.0;;;25.3;38.0
53940;BME280;39850;43.324;21.916;2023-08-30T15:01:00;981.0;;;25.3;36.0
53940;BME280;39850;43.324;21.916;2023-08-30T15:05:36;981.0;;;25.3;36.0
53940;BME280;39850;43.324;21.916;2023-08-30T15:10:13;981.0;;;25.3;37.0
53940;BME280;39850;43.324;21.916;2023-08-30T15:14:50;981.0;;;25.3;37.0
53940;BME280;39850;43.324;21.916;2023-08-30T15:19:26;981.0;;;25.3;36.0
53940;BME280;39850;43.324;21.916;2023-08-30T15:24:05;981.0;;;25.3;36.0
53940;BME280;39850;43.324;21.916;2023-08-30T15:28:43;981.0;;;25.3;36.0
53940;BME280;39850;43.324;21.916;2023-08-30T15:33:19;981.0;;;25.3;36.0
53940;BME280;39850;43.324;21.916;2023-08-30T15:37:56;981.0;;;25.3;36.0
53940;BME280;39850;43.324;21.916;2023-08-30T15:42:34;981.0;;;25.3;36.0
53940;BME280;39850;43.324;21.916;2023-08-30T15:47:11;981.0;;;25.3;36.0
53940;BME280;39850;43.324;21.916;2023-08-30T16:19:32;981.0;;;25.5;40.0
53940;BME280;39850;43.324;21.916;2023-08-30T16:24:08;981.0;;;25.5;40.0
53940;BME280;39850;43.324;21.916;2023-08-30T16:28:45;981.0;;;25.5;40.0
53940;BME280;39850;43.324;21.916;2023-08-30T16:33:22;981.0;;;25.5;40.0
53940;BME280;39850;43.324;21.916;2023-08-30T16:37:59;981.0;;;25.5;40.0
53940;BME280;39850;43.324;21.916;2023-08-30T16:42:35;981.0;;;25.5;40.0
53940;BME280;39850;43.324;21.916;2023-08-30T16:47:12;981.0;;;25.5;40.0
53940;BME280;39850;43.324;21.916;2023-08-30T16:51:49;981.0;;;25.5;41.0
53940;BME280;39850;43.324;21.916;2023-08-30T16:56:26;981.0;;;25.5;41.0
53940;BME280;39850;43.324;21.916;2023-08-30T17:01:10;981.0;;;25.5;42.0
53940;BME280;39850;43.324;21.916;2023-08-30T17:05:47;981.0;;;25.5;42.0
53940;BME280;39850;43.324;21.916;2023-08-30T17:42:40;982.0;;;24.5;44.0
53940;BME280;39850;43.324;21.916;2023-08-30T17:47:17;982.0;;;24.5;44.0
53940;BME280;39850;43.324;21.916;2023-08-30T17:51:54;982.0;;;24.6;44.0
53940;BME280;39850;43.324;21.916;2023-08-30T17:56:30;982.0;;;24.6;44.0
53940;BME280;39850;43.324;21.916;2023-08-30T18:01:09;982.0;;;24.6;44.0
53940;BME280;39850;43.324;21.916;2023-08-30T18:05:46;982.0;;;24.6;44.0
53940;BME280;39850;43.324;21.916;2023-08-30T18:10:24;982.0;;;24.6;45.0
53940;BME280;39850;43.324;21.916;2023-08-30T18:15:01;982.0;;;24.6;45.0
53940;BME280;39850;43.324;21.916;2023-08-30T18:19:38;982.0;;;24.6;45.0
53940;BME280;39850;43.324;21.916;2023-08-30T18:24:20;982.0;;;24.6;45.0
53940;BME280;39850;43.324;21.916;2023-08-30T19:01:13;983.0;;;23.5;49.0
53940;BME280;39850;43.324;21.916;2023-08-30T19:05:50;983.0;;;23.5;49.0
53940;BME280;39850;43.324;21.916;2023-08-30T19:10:26;984.0;;;23.5;49.0
53940;BME280;39850;43.324;21.916;2023-08-30T19:15:08;984.0;;;23.5;49.0
53940;BME280;39850;43.324;21.916;2023-08-30T19:19:45;984.0;;;23.5;50.0
53940;BME280;39850;43.324;21.916;2023-08-30T19:24:22;984.0;;;23.5;50.0
53940;BME280;39850;43.324;21.916;2023-08-30T19:28:59;984.0;;;23.6;50.0
53940;BME280;39850;43.324;21.916;2023-08-30T19:33:36;984.0;;;23.6;50.0
53940;BME280;39850;43.324;21.916;2023-08-30T19:38:12;984.0;;;23.6;50.0
53940;BME280;39850;43.324;21.916;2023-08-30T19:42:49;984.0;;;23.7;51.0
53940;BME280;39850;43.324;21.916;2023-08-30T19:47:27;984.0;;;23.7;51.0
53940;BME280;39850;43.324;21.916;2023-08-30T20:19:47;984.0;;;23.5;50.0
53940;BME280;39850;43.324;21.916;2023-08-30T20:24:23;984.0;;;23.5;50.0
53940;BME280;39850;43.324;21.916;2023-08-30T20:29:00;984.0;;;23.5;50.0
53940;BME280;39850;43.324;21.916;2023-08-30T20:33:36;984.0;;;23.5;50.0
53940;BME280;39850;43.324;21.916;2023-08-30T20:38:13;984.0;;;23.5;50.0
53940;BME280;39850;43.324;21.916;2023-08-30T20:42:49;985.0;;;23.5;50.0
53940;BME280;39850;43.324;21.916;2023-08-30T20:47:26;985.0;;;23.5;50.0
53940;BME280;39850;43.324;21.916;2023-08-30T20:52:05;985.0;;;23.6;50.0
53940;BME280;39850;43.324;21.916;2023-08-30T20:56:41;985.0;;;23.6;50.0
53940;BME280;39850;43.324;21.916;2023-08-30T21:01:18;985.0;;;23.7;50.0
53940;BME280;39850;43.324;21.916;2023-08-30T21:05:54;985.0;;;23.7;50.0
53940;BME280;39850;43.324;21.916;2023-08-30T21:42:52;985.0;;;22.2;58.0
53940;BME280;39850;43.324;21.916;2023-08-30T21:47:28;985.0;;;22.2;58.0
53940;BME280;39850;43.324;21.916;2023-08-30T21:52:06;985.0;;;22.0;58.0
53940;BME280;39850;43.324;21.916;2023-08-30T21:56:42;985.0;;;22.0;58.0
53940;BME280;39850;43.324;21.916;2023-08-30T22:01:19;985.0;;;22.2;58.0
53940;BME280;39850;43.324;21.916;2023-08-30T22:06:01;985.0;;;22.2;58.0
53940;BME280;39850;43.324;21.916;2023-08-30T22:10:38;985.0;;;22.0;58.0
53940;BME280;39850;43.324;21.916;2023-08-30T22:15:16;985.0;;;22.0;58.0
53940;BME280;39850;43.324;21.916;2023-08-30T22:19:53;985.0;;;22.3;58.0
53940;BME280;39850;43.324;21.916;2023-08-30T22:24:30;985.0;;;22.3;58.0
53940;BME280;39850;43.324;21.916;2023-08-30T22:29:07;985.0;;;22.3;58.0
53940;BME280;39850;43.324;21.916;2023-08-30T23:01:25;985.0;;;21.7;61.0
53940;BME280;39850;43.324;21.916;2023-08-30T23:06:03;985.0;;;21.7;61.0
53940;BME280;39850;43.324;21.916;2023-08-30T23:10:42;985.0;;;21.5;62.0
53940;BME280;39850;43.324;21.916;2023-08-30T23:15:20;985.0;;;21.5;62.0
53940;BME280;39850;43.324;21.916;2023-08-30T23:19:57;985.0;;;21.4;63.0
53940;BME280;39850;43.324;21.916;2023-08-30T23:24:34;985.0;;;21.4;63.0
53940;BME280;39850;43.324;21.916;2023-08-30T23:29:10;985.0;;;21.4;63.0
53940;BME280;39850;43.324;21.916;2023-08-30T23:33:48;985.0;;;21.1;64.0
53940;BME280;39850;43.324;21.916;2023-08-30T23:38:24;985.0;;;21.1;64.0
53940;BME280;39850;43.324;21.916;2023-08-30T23:43:01;985.0;;;20.8;65.0
53940;BME280;39850;43.324;21.916;2023-08-30T23:47:37;985.0;;;20.8;65.0
